Chiado — CSKX — position and weather

sailwx.info

Track history (hours):
 
Tides and Currents Weather Stations Pressure Air Temp Water Temp Dewpoint Dewpoint Depression Visibility Wind Speed Wind Dir Waves Ship Positions

Chiado

Last reported at 2017-Dec-08 08:30 UTC. Time now 2017-Dec-15 00:44 UTC.
Position N 38°41' W 009°09'.

Length 45 m; draft 24.8 m.

Type: Passenger vessel. MMSI: 263700010.

Date/timePositionNaut miles runAvg speedWind from/ knotsBaromVisibWave heightAir tempDewpointWater temp
2017-Dec-08 08:30N 38°41' W 009°09'3 6.6
2017-Dec-08 08:01N 38°39' W 009°06'0 0.0
2017-Dec-08 07:30N 38°39' W 009°06'0 0.0
2017-Dec-07 23:38N 38°39' W 009°06'1 6.5
2017-Dec-07 23:29N 38°40' W 009°06'3 6.5
2017-Dec-07 22:59N 38°42' W 009°09'4 8.2
2017-Dec-07 22:30N 38°39' W 009°06'4 7.9
2017-Dec-07 21:59N 38°42' W 009°09'4 8.6
2017-Dec-07 21:30N 38°39' W 009°06'4 7.3
2017-Dec-07 20:57N 38°42' W 009°09'4 9.3
2017-Dec-07 20:30N 38°39' W 009°06'4 8.2
2017-Dec-07 20:00N 38°42' W 009°09'4 8.0
2017-Dec-07 19:29N 38°39' W 009°06'4 8.2
2017-Dec-07 18:59N 38°42' W 009°09'3 6.2
2017-Dec-07 18:30N 38°40' W 009°06'1 1.9
2017-Dec-07 18:00N 38°40' W 009°07'2 4.3
2017-Dec-07 17:31N 38°42' W 009°09'3 6.7
2017-Dec-07 16:59N 38°40' W 009°06'1 2.3
2017-Dec-07 16:28N 38°40' W 009°07'2 3.7
2017-Dec-07 15:59N 38°42' W 009°08'4 7.6
2017-Dec-07 15:30N 38°39' W 009°06'0 0.0
2017-Dec-07 15:00N 38°39' W 009°06'4 7.6
2017-Dec-07 14:28N 38°42' W 009°09'4 8.2
2017-Dec-07 13:58N 38°39' W 009°06'0 0.0
2017-Dec-07 13:29N 38°39' W 009°06'4 6.8
2017-Dec-07 12:53N 38°42' W 009°09'410.4
2017-Dec-07 12:29N 38°39' W 009°06'0 0.0
2017-Dec-07 12:00N 38°39' W 009°06'4 7.3
2017-Dec-07 11:27N 38°42' W 009°09'4 9.2
2017-Dec-07 11:00N 38°39' W 009°06'0 0.0
2017-Dec-07 10:30N 38°39' W 009°06'4 8.2
2017-Dec-07 10:00N 38°42' W 009°09'2 4.6
2017-Dec-07 09:30N 38°40' W 009°07'  
2017-Dec-04 10:30N 38°41' W 009°09'2 4.2
2017-Dec-04 09:54N 38°40' W 009°06'1 1.5
2017-Dec-04 09:25N 38°40' W 009°07'2 5.1
2017-Dec-04 09:01N 38°42' W 009°08'3 4.7
2017-Dec-04 08:25N 38°40' W 009°06'2 5.2
2017-Dec-04 08:00N 38°41' W 009°08'0 0.4
2017-Dec-04 07:30N 38°41' W 009°08'3 4.4
2017-Dec-04 06:52N 38°39' W 009°06'410.1
2017-Dec-04 06:30N 38°42' W 009°09'1 2.3
2017-Dec-04 05:59N 38°41' W 009°09'0 0.0
2017-Dec-03 16:15N 38°41' W 009°09'1 0.7
2017-Dec-03 14:44N 38°42' W 009°09'1 0.0
2017-Dec-02 08:22N 38°41' W 009°09'0 0.0
2017-Dec-02 08:00N 38°41' W 009°09'2 0.0
2017-Nov-30 10:35N 38°40' W 009°07'0 0.2
2017-Nov-30 10:16N 38°40' W 009°07'0 0.0
2017-Nov-30 09:32N 38°40' W 009°07'014.7
2017-Nov-30 09:31N 38°40' W 009°08'0 0.7
2017-Nov-30 08:49N 38°40' W 009°07'3 8.6
2017-Nov-30 08:30N 38°42' W 009°08'2 4.9
2017-Nov-30 08:01N 38°40' W 009°07'0 0.3
2017-Nov-30 07:17N 38°40' W 009°07'3 8.6
2017-Nov-30 06:58N 38°42' W 009°09'3 0.2
2017-Nov-29 20:11N 38°40' W 009°07'3 7.0
2017-Nov-29 19:49N 38°42' W 009°09'3 6.4
2017-Nov-29 19:19N 38°40' W 009°06'2 3.8
2017-Nov-29 18:52N 38°41' W 009°08'1 2.3
2017-Nov-29 18:26N 38°40' W 009°07'0 0.1
2017-Nov-29 17:42N 38°40' W 009°07'0 0.0
2017-Nov-29 16:57N 38°40' W 009°07'0 0.1
2017-Nov-29 16:07N 38°40' W 009°07'215.8
2017-Nov-29 16:00N 38°41' W 009°08'1 0.0
2017-Nov-28 19:25N 38°42' W 009°09'5 8.5
2017-Nov-28 18:52N 38°41' W 009°03'4 5.8
2017-Nov-28 18:14N 38°42' W 009°08'1 3.0
2017-Nov-28 18:00N 38°42' W 009°08'5 9.1
2017-Nov-28 17:26N 38°41' W 009°02'510.7
2017-Nov-28 16:55N 38°42' W 009°08'615.0
2017-Nov-28 16:30N 38°42' W 009°00'1 2.2
2017-Nov-28 16:00N 38°41' W 009°02'5 0.9
2017-Nov-28 10:13N 38°42' W 009°08'410.9
2017-Nov-28 09:49N 38°41' W 009°03'1 2.4
2017-Nov-28 09:30N 38°41' W 009°02'1 1.7
2017-Nov-28 08:48N 38°41' W 009°04'  
Track history (hours):
 
Tides and Currents Weather Stations Pressure Air Temp Water Temp Dewpoint Dewpoint Depression Visibility Wind Speed Wind Dir Waves Ship Positions

Chiado

Last reported at 2017-Dec-08 08:30 UTC. Time now 2017-Dec-15 00:44 UTC.
Position N 38°41' W 009°09'.

Length 45 m; draft 24.8 m.

Type: Passenger vessel. MMSI: 263700010.

Date/timePositionNaut miles runAvg speedWind from/ knotsBaromVisibWave heightAir tempDewpointWater temp
2017-Dec-08 08:30N 38°41' W 009°09'3 6.6
2017-Dec-08 08:01N 38°39' W 009°06'0 0.0
2017-Dec-08 07:30N 38°39' W 009°06'0 0.0
2017-Dec-07 23:38N 38°39' W 009°06'1 6.5
2017-Dec-07 23:29N 38°40' W 009°06'3 6.5
2017-Dec-07 22:59N 38°42' W 009°09'4 8.2
2017-Dec-07 22:30N 38°39' W 009°06'4 7.9
2017-Dec-07 21:59N 38°42' W 009°09'4 8.6
2017-Dec-07 21:30N 38°39' W 009°06'4 7.3
2017-Dec-07 20:57N 38°42' W 009°09'4 9.3
2017-Dec-07 20:30N 38°39' W 009°06'4 8.2
2017-Dec-07 20:00N 38°42' W 009°09'4 8.0
2017-Dec-07 19:29N 38°39' W 009°06'4 8.2
2017-Dec-07 18:59N 38°42' W 009°09'3 6.2
2017-Dec-07 18:30N 38°40' W 009°06'1 1.9
2017-Dec-07 18:00N 38°40' W 009°07'2 4.3
2017-Dec-07 17:31N 38°42' W 009°09'3 6.7
2017-Dec-07 16:59N 38°40' W 009°06'1 2.3
2017-Dec-07 16:28N 38°40' W 009°07'2 3.7
2017-Dec-07 15:59N 38°42' W 009°08'4 7.6
2017-Dec-07 15:30N 38°39' W 009°06'0 0.0
2017-Dec-07 15:00N 38°39' W 009°06'4 7.6
2017-Dec-07 14:28N 38°42' W 009°09'4 8.2
2017-Dec-07 13:58N 38°39' W 009°06'0 0.0
2017-Dec-07 13:29N 38°39' W 009°06'4 6.8
2017-Dec-07 12:53N 38°42' W 009°09'410.4
2017-Dec-07 12:29N 38°39' W 009°06'0 0.0
2017-Dec-07 12:00N 38°39' W 009°06'4 7.3
2017-Dec-07 11:27N 38°42' W 009°09'4 9.2
2017-Dec-07 11:00N 38°39' W 009°06'0 0.0
2017-Dec-07 10:30N 38°39' W 009°06'4 8.2
2017-Dec-07 10:00N 38°42' W 009°09'2 4.6
2017-Dec-07 09:30N 38°40' W 009°07'  
2017-Dec-04 10:30N 38°41' W 009°09'2 4.2
2017-Dec-04 09:54N 38°40' W 009°06'1 1.5
2017-Dec-04 09:25N 38°40' W 009°07'2 5.1
2017-Dec-04 09:01N 38°42' W 009°08'3 4.7
2017-Dec-04 08:25N 38°40' W 009°06'2 5.2
2017-Dec-04 08:00N 38°41' W 009°08'0 0.4
2017-Dec-04 07:30N 38°41' W 009°08'3 4.4
2017-Dec-04 06:52N 38°39' W 009°06'410.1
2017-Dec-04 06:30N 38°42' W 009°09'1 2.3
2017-Dec-04 05:59N 38°41' W 009°09'0 0.0
2017-Dec-03 16:15N 38°41' W 009°09'1 0.7
2017-Dec-03 14:44N 38°42' W 009°09'1 0.0
2017-Dec-02 08:22N 38°41' W 009°09'0 0.0
2017-Dec-02 08:00N 38°41' W 009°09'2 0.0
2017-Nov-30 10:35N 38°40' W 009°07'0 0.2
2017-Nov-30 10:16N 38°40' W 009°07'0 0.0
2017-Nov-30 09:32N 38°40' W 009°07'014.7
2017-Nov-30 09:31N 38°40' W 009°08'0 0.7
2017-Nov-30 08:49N 38°40' W 009°07'3 8.6
2017-Nov-30 08:30N 38°42' W 009°08'2 4.9
2017-Nov-30 08:01N 38°40' W 009°07'0 0.3
2017-Nov-30 07:17N 38°40' W 009°07'3 8.6
2017-Nov-30 06:58N 38°42' W 009°09'3 0.2
2017-Nov-29 20:11N 38°40' W 009°07'3 7.0
2017-Nov-29 19:49N 38°42' W 009°09'3 6.4
2017-Nov-29 19:19N 38°40' W 009°06'2 3.8
2017-Nov-29 18:52N 38°41' W 009°08'1 2.3
2017-Nov-29 18:26N 38°40' W 009°07'0 0.1
2017-Nov-29 17:42N 38°40' W 009°07'0 0.0
2017-Nov-29 16:57N 38°40' W 009°07'0 0.1
2017-Nov-29 16:07N 38°40' W 009°07'215.8
2017-Nov-29 16:00N 38°41' W 009°08'1 0.0
2017-Nov-28 19:25N 38°42' W 009°09'5 8.5
2017-Nov-28 18:52N 38°41' W 009°03'4 5.8
2017-Nov-28 18:14N 38°42' W 009°08'1 3.0
2017-Nov-28 18:00N 38°42' W 009°08'5 9.1
2017-Nov-28 17:26N 38°41' W 009°02'510.7
2017-Nov-28 16:55N 38°42' W 009°08'615.0
2017-Nov-28 16:30N 38°42' W 009°00'1 2.2
2017-Nov-28 16:00N 38°41' W 009°02'5 0.9
2017-Nov-28 10:13N 38°42' W 009°08'410.9
2017-Nov-28 09:49N 38°41' W 009°03'1 2.4
2017-Nov-28 09:30N 38°41' W 009°02'1 1.7
2017-Nov-28 08:48N 38°41' W 009°04'  

Dump ship's entire track history